Time;durP1;ratioP1;P1;durP2;ratioP2;P2;SDS_P1;SDS_P2;PMS_P1;PMS_P2;Temp;Humidity;BMP_temperature;BMP_pressure;BME280_temperature;BME280_humidity;BME280_pressure;Samples;Min_cycle;Max_cycle;Signal;HPM_P1;HPM_P2
2021/06/02 00:00:10;;;;;;;9.65;1.52;;;12.00;99.90;;;;;;1973029;73;21036;-74
2021/06/02 00:02:36;;;;;;;3.72;1.30;;;12.00;99.90;;;;;;1973383;73;21063;-74
2021/06/02 00:05:02;;;;;;;4.55;1.40;;;11.90;99.90;;;;;;1973138;73;21092;-74
2021/06/02 00:07:28;;;;;;;1.85;1.12;;;11.90;99.90;;;;;;1973252;73;21064;-74
2021/06/02 00:09:54;;;;;;;1.95;1.40;;;11.90;99.90;;;;;;1973176;73;21056;-74
2021/06/02 00:12:20;;;;;;;4.37;1.52;;;12.00;99.90;;;;;;1973214;73;21149;-74
2021/06/02 00:14:46;;;;;;;3.98;1.52;;;11.90;99.90;;;;;;1973227;73;21088;-75
2021/06/02 00:17:13;;;;;;;4.10;1.30;;;11.80;99.90;;;;;;1973118;73;20992;-74
2021/06/02 00:19:39;;;;;;;2.80;1.67;;;11.80;99.90;;;;;;1973080;73;21496;-74
2021/06/02 00:22:05;;;;;;;2.12;1.57;;;11.80;99.90;;;;;;1973125;73;21528;-74
2021/06/02 00:24:31;;;;;;;2.70;1.72;;;11.70;99.90;;;;;;1973144;73;21548;-74
2021/06/02 00:26:57;;;;;;;2.45;1.30;;;11.70;99.90;;;;;;1973145;73;21542;-74
2021/06/02 00:29:23;;;;;;;3.75;1.40;;;11.70;99.90;;;;;;1973139;73;21556;-74
2021/06/02 00:31:49;;;;;;;3.17;1.67;;;11.60;99.90;;;;;;1973145;73;21483;-74
2021/06/02 00:34:16;;;;;;;1.37;1.15;;;11.50;99.90;;;;;;1973113;73;21067;-74
2021/06/02 00:36:42;;;;;;;2.90;1.40;;;11.50;99.90;;;;;;1973115;73;21028;-75
2021/06/02 00:39:08;;;;;;;3.27;1.72;;;11.40;99.90;;;;;;1973102;73;21071;-74
2021/06/02 00:41:34;;;;;;;2.15;1.40;;;11.40;99.90;;;;;;1973149;73;21055;-74
2021/06/02 00:44:00;;;;;;;6.97;1.42;;;11.40;99.90;;;;;;1973204;73;21107;-74
2021/06/02 00:46:26;;;;;;;1.60;1.50;;;11.30;99.90;;;;;;1973116;73;21025;-74
2021/06/02 00:48:52;;;;;;;1.92;1.27;;;11.20;99.90;;;;;;1973140;73;21055;-74
2021/06/02 00:51:18;;;;;;;1.50;1.40;;;11.10;99.90;;;;;;1972888;73;21173;-74
2021/06/02 00:53:45;;;;;;;1.22;1.12;;;11.10;99.90;;;;;;1972846;73;21148;-74
2021/06/02 00:56:11;;;;;;;1.50;1.40;;;11.10;99.90;;;;;;1975067;72;21217;-74
2021/06/02 00:58:37;;;;;;;1.45;1.35;;;11.10;99.90;;;;;;1973070;72;21063;-75
2021/06/02 01:01:03;;;;;;;1.90;1.40;;;11.10;99.90;;;;;;1973011;73;21051;-74
2021/06/02 01:03:30;;;;;;;4.45;1.70;;;11.10;99.90;;;;;;1973154;72;21104;-75
2021/06/02 01:05:56;;;;;;;1.70;1.60;;;11.00;99.90;;;;;;1975334;72;21059;-74
2021/06/02 01:08:22;;;;;;;3.10;1.80;;;11.00;99.90;;;;;;1975357;72;21095;-74
2021/06/02 01:10:49;;;;;;;2.05;1.60;;;11.00;99.90;;;;;;1973051;73;21084;-74
2021/06/02 01:13:15;;;;;;;2.65;1.98;;;11.00;99.90;;;;;;1971937;72;21067;-74
2021/06/02 01:15:41;;;;;;;2.35;1.80;;;10.90;99.90;;;;;;1972950;72;21063;-74
2021/06/02 01:18:07;;;;;;;2.25;1.42;;;10.90;99.90;;;;;;1973010;73;21188;-74
2021/06/02 01:20:33;;;;;;;5.37;1.72;;;10.80;99.90;;;;;;1973024;73;21075;-75
2021/06/02 01:22:59;;;;;;;3.02;1.52;;;10.80;99.90;;;;;;1972938;73;21146;-75
2021/06/02 01:25:26;;;;;;;3.37;1.30;;;10.70;99.90;;;;;;1972842;73;21036;-74
2021/06/02 01:27:53;;;;;;;2.85;1.80;;;10.60;99.90;;;;;;1973101;73;21069;-75
2021/06/02 01:30:19;;;;;;;6.20;1.52;;;10.50;99.90;;;;;;1972887;73;21124;-74
2021/06/02 01:32:45;;;;;;;2.30;1.47;;;10.50;99.90;;;;;;1973029;73;21467;-74
2021/06/02 01:35:11;;;;;;;5.37;1.60;;;10.50;99.90;;;;;;1972961;73;21526;-74
2021/06/02 01:37:38;;;;;;;1.80;1.65;;;10.40;99.90;;;;;;1973111;73;21235;-74
2021/06/02 01:40:04;;;;;;;2.10;1.57;;;10.40;99.90;;;;;;1972858;73;21036;-74
2021/06/02 01:42:30;;;;;;;1.52;1.40;;;10.30;99.90;;;;;;1972862;73;21063;-74
2021/06/02 01:44:56;;;;;;;2.52;1.60;;;10.30;99.90;;;;;;1972908;73;21200;-74
2021/06/02 01:47:22;;;;;;;1.50;1.30;;;10.20;99.90;;;;;;1972614;73;21137;-74
2021/06/02 01:49:48;;;;;;;5.40;1.40;;;10.20;99.90;;;;;;1972521;73;21080;-74
2021/06/02 01:52:14;;;;;;;6.03;1.70;;;10.10;99.90;;;;;;1972523;73;21095;-74
2021/06/02 01:54:40;;;;;;;4.35;1.62;;;10.10;99.90;;;;;;1972548;73;21071;-74
2021/06/02 01:57:07;;;;;;;1.32;1.27;;;10.10;99.90;;;;;;1972636;73;21099;-74
2021/06/02 01:59:33;;;;;;;1.80;1.65;;;10.10;99.90;;;;;;1972554;73;21040;-74
2021/06/02 02:01:59;;;;;;;2.50;1.27;;;10.10;99.90;;;;;;1972445;73;21067;-74
2021/06/02 02:04:25;;;;;;;4.90;1.60;;;9.90;99.90;;;;;;1972608;73;21075;-74
2021/06/02 02:06:51;;;;;;;2.17;1.60;;;9.90;99.90;;;;;;1972500;73;21079;-74
2021/06/02 02:09:17;;;;;;;2.17;1.50;;;9.90;99.90;;;;;;1972580;73;21537;-74
2021/06/02 02:11:43;;;;;;;2.17;2.00;;;9.80;99.90;;;;;;1972544;73;21518;-74
2021/06/02 02:14:09;;;;;;;2.10;1.67;;;9.90;99.90;;;;;;1972590;73;21076;-74
2021/06/02 02:16:36;;;;;;;2.15;1.57;;;9.90;99.90;;;;;;1972578;73;21071;-74
2021/06/02 02:19:02;;;;;;;3.40;1.85;;;9.90;99.90;;;;;;1972551;73;21063;-74
2021/06/02 02:21:28;;;;;;;8.83;1.82;;;9.80;99.90;;;;;;1972361;73;21123;-74
2021/06/02 02:23:54;;;;;;;1.62;1.52;;;9.70;99.90;;;;;;1972423;73;21129;-74
2021/06/02 02:26:20;;;;;;;4.40;2.00;;;9.70;99.90;;;;;;1972614;73;21059;-74
2021/06/02 02:28:46;;;;;;;1.60;1.37;;;9.70;99.90;;;;;;1972533;73;21070;-73
2021/06/02 02:31:12;;;;;;;2.00;1.50;;;9.60;99.90;;;;;;1972404;73;21070;-73
2021/06/02 02:33:38;;;;;;;1.65;1.55;;;9.60;99.90;;;;;;1972482;73;21051;-74
2021/06/02 02:36:05;;;;;;;2.00;1.40;;;9.60;99.90;;;;;;1972572;73;21062;-74
2021/06/02 02:38:31;;;;;;;1.65;1.55;;;9.50;99.90;;;;;;1972513;73;21442;-74
2021/06/02 02:40:57;;;;;;;7.08;2.08;;;9.50;99.90;;;;;;1972446;73;21512;-74
2021/06/02 02:43:23;;;;;;;2.60;1.47;;;9.40;99.90;;;;;;1972680;73;21545;-74
2021/06/02 02:45:49;;;;;;;1.65;1.55;;;9.40;99.90;;;;;;1972759;73;21090;-74
2021/06/02 02:48:16;;;;;;;2.12;1.40;;;9.40;99.90;;;;;;1972822;73;21063;-74
2021/06/02 02:50:42;;;;;;;1.85;1.55;;;9.30;99.90;;;;;;1972817;73;21072;-74
2021/06/02 02:53:09;;;;;;;5.83;1.72;;;9.30;99.90;;;;;;1972742;73;21175;-74
2021/06/02 02:55:35;;;;;;;2.95;1.55;;;9.20;99.90;;;;;;1972934;73;21036;-74
2021/06/02 02:58:01;;;;;;;2.83;1.45;;;9.20;99.90;;;;;;1972889;73;21511;-74
2021/06/02 03:00:28;;;;;;;1.40;1.30;;;9.20;99.90;;;;;;1972672;72;21094;-74
2021/06/02 03:02:54;;;;;;;4.00;1.80;;;9.20;99.90;;;;;;1972527;73;21113;-74
2021/06/02 03:05:20;;;;;;;2.58;1.90;;;9.20;99.90;;;;;;1972461;73;20992;-74
2021/06/02 03:07:46;;;;;;;2.58;1.62;;;9.10;99.90;;;;;;1972533;73;21055;-74
2021/06/02 03:10:12;;;;;;;7.97;1.72;;;9.10;99.90;;;;;;1972566;73;21132;-74
2021/06/02 03:12:38;;;;;;;1.72;1.62;;;9.00;99.90;;;;;;1972648;73;21113;-74
2021/06/02 03:15:04;;;;;;;2.70;1.80;;;9.00;99.90;;;;;;1972806;73;21059;-74
2021/06/02 03:20:15;;;;;;;2.15;1.60;;;8.90;99.90;;;;;;1972481;73;21476;-74
2021/06/02 03:22:41;;;;;;;3.62;1.75;;;8.90;99.90;;;;;;1971897;72;21555;-74
2021/06/02 03:25:07;;;;;;;6.05;1.67;;;8.90;99.90;;;;;;1972824;72;21055;-73
2021/06/02 03:27:34;;;;;;;4.12;2.15;;;8.80;99.90;;;;;;1972712;73;21116;-74
2021/06/02 03:30:00;;;;;;;4.55;1.60;;;8.90;99.90;;;;;;1972834;72;21531;-74
2021/06/02 03:32:26;;;;;;;3.02;1.82;;;8.80;99.90;;;;;;1972502;73;21548;-74
2021/06/02 03:34:52;;;;;;;3.02;2.00;;;8.70;99.90;;;;;;1972336;73;21385;-75
2021/06/02 03:37:18;;;;;;;3.70;2.02;;;8.70;99.90;;;;;;1974960;72;21542;-74
2021/06/02 03:39:44;;;;;;;4.60;2.02;;;8.70;99.90;;;;;;1971679;72;21498;-74
2021/06/02 03:42:11;;;;;;;2.00;1.80;;;8.70;99.90;;;;;;1977266;72;21059;-74
2021/06/02 03:44:37;;;;;;;6.60;1.80;;;8.70;99.90;;;;;;1975337;72;21063;-74
2021/06/02 03:47:03;;;;;;;3.22;2.10;;;8.60;99.90;;;;;;1973317;72;21058;-74
2021/06/02 03:49:29;;;;;;;2.08;1.47;;;8.70;99.90;;;;;;1972468;73;21075;-74
2021/06/02 03:51:55;;;;;;;3.22;2.12;;;8.70;99.90;;;;;;1973362;72;21169;-74
2021/06/02 03:54:21;;;;;;;2.45;1.77;;;8.70;99.90;;;;;;1972682;72;21125;-74
2021/06/02 03:56:47;;;;;;;1.90;1.70;;;8.70;99.90;;;;;;1975751;72;21144;-73
2021/06/02 03:59:14;;;;;;;2.12;1.92;;;8.70;99.90;;;;;;1972849;72;21108;-74
2021/06/02 04:01:40;;;;;;;2.65;1.87;;;8.70;99.90;;;;;;1972586;73;21424;-75
2021/06/02 04:04:06;;;;;;;3.72;2.15;;;8.70;99.90;;;;;;1973670;72;21498;-75
2021/06/02 04:06:32;;;;;;;2.45;2.10;;;8.80;99.90;;;;;;1974020;72;21446;-75
2021/06/02 04:08:58;;;;;;;2.42;1.98;;;8.80;99.90;;;;;;1971509;72;21640;-74
2021/06/02 04:11:24;;;;;;;4.10;2.77;;;8.70;99.90;;;;;;1972391;73;21055;-74
2021/06/02 04:13:51;;;;;;;2.75;2.45;;;8.70;99.90;;;;;;1973586;72;21075;-74
2021/06/02 04:16:17;;;;;;;3.17;2.52;;;8.80;99.90;;;;;;1972544;73;21063;-74
2021/06/02 04:18:43;;;;;;;5.00;2.08;;;8.80;99.90;;;;;;1972662;73;21499;-74
2021/06/02 04:21:10;;;;;;;2.98;2.17;;;8.80;99.90;;;;;;1972802;73;21036;-74
2021/06/02 04:23:37;;;;;;;3.10;2.47;;;8.90;99.90;;;;;;1972756;73;21035;-75
2021/06/02 04:26:03;;;;;;;4.50;2.70;;;8.90;99.90;;;;;;1972535;73;21039;-73
2021/06/02 04:28:29;;;;;;;3.00;2.62;;;8.90;99.90;;;;;;1972425;73;21036;-75
2021/06/02 04:30:55;;;;;;;2.85;2.10;;;8.90;99.90;;;;;;1972482;73;21067;-75
2021/06/02 04:33:21;;;;;;;3.87;2.35;;;8.90;99.90;;;;;;1972588;73;21096;-74
2021/06/02 04:35:48;;;;;;;9.70;2.85;;;9.00;99.90;;;;;;1972690;73;21135;-75
2021/06/02 04:38:14;;;;;;;4.33;3.02;;;9.00;99.90;;;;;;1972547;73;21067;-75
2021/06/02 04:40:40;;;;;;;4.87;3.35;;;9.00;99.90;;;;;;1972509;73;21071;-74
2021/06/02 04:43:06;;;;;;;5.40;2.55;;;9.00;99.90;;;;;;1972493;73;21035;-75
2021/06/02 04:45:33;;;;;;;5.25;2.60;;;9.20;99.90;;;;;;1972552;73;21159;-75
2021/06/02 04:47:59;;;;;;;4.62;2.10;;;9.30;99.90;;;;;;1972443;73;21106;-74
2021/06/02 04:50:25;;;;;;;4.83;2.40;;;9.30;99.90;;;;;;1972595;73;21091;-75
2021/06/02 04:52:51;;;;;;;4.53;2.60;;;9.30;99.90;;;;;;1972684;73;21209;-75
2021/06/02 04:55:17;;;;;;;3.27;2.35;;;9.30;99.90;;;;;;1972655;73;21554;-75
2021/06/02 04:57:46;;;;;;;3.92;2.75;;;9.40;99.90;;;;;;1972523;73;21447;-78
2021/06/02 05:00:13;;;;;;;3.90;2.30;;;9.30;99.90;;;;;;1972588;73;21048;-75
2021/06/02 05:02:39;;;;;;;4.85;2.67;;;9.50;99.90;;;;;;1972758;73;21083;-74
2021/06/02 05:05:05;;;;;;;3.45;2.62;;;9.50;99.90;;;;;;1972559;73;21062;-74
2021/06/02 05:07:31;;;;;;;4.40;2.72;;;9.60;99.90;;;;;;1972592;73;21136;-75
2021/06/02 05:09:57;;;;;;;4.03;2.60;;;9.70;99.90;;;;;;1972573;73;21144;-75
2021/06/02 05:12:23;;;;;;;7.58;2.95;;;9.80;99.90;;;;;;1972605;73;21107;-75
2021/06/02 05:14:49;;;;;;;4.95;3.22;;;9.90;99.90;;;;;;1972668;73;21526;-74
2021/06/02 05:17:16;;;;;;;4.08;2.90;;;10.10;99.90;;;;;;1972549;73;21455;-74
2021/06/02 05:22:14;;;;;;;4.80;2.85;;;11.20;99.90;;;;;;1972595;73;21084;-74
2021/06/02 05:24:40;;;;;;;4.80;2.55;;;11.90;99.90;;;;;;1972505;73;21575;-74
2021/06/02 05:27:06;;;;;;;3.12;2.37;;;13.10;99.90;;;;;;1972837;73;21475;-75
2021/06/02 05:29:32;;;;;;;10.40;2.40;;;14.70;99.90;;;;;;1972601;73;21503;-75
2021/06/02 05:31:58;;;;;;;4.53;2.10;;;15.30;99.90;;;;;;1972610;73;21554;-74
2021/06/02 05:34:24;;;;;;;7.67;2.33;;;15.80;99.90;;;;;;1972618;73;21495;-77
2021/06/02 05:36:50;;;;;;;2.95;1.95;;;15.30;99.90;;;;;;1972747;73;21482;-75
2021/06/02 05:39:17;;;;;;;5.45;2.30;;;15.30;99.90;;;;;;1972704;73;21574;-74
2021/06/02 05:41:43;;;;;;;6.45;1.55;;;15.80;99.90;;;;;;1972572;73;21067;-74
2021/06/02 05:44:09;;;;;;;3.00;1.75;;;16.40;99.90;;;;;;1972575;73;21191;-74
2021/06/02 05:46:35;;;;;;;2.15;1.67;;;16.80;99.90;;;;;;1972741;73;21141;-75
2021/06/02 05:49:03;;;;;;;3.72;1.55;;;17.70;99.90;;;;;;1972810;73;21091;-75
2021/06/02 05:51:29;;;;;;;4.17;2.00;;;18.90;99.90;;;;;;1972607;73;21212;-75
2021/06/02 05:53:55;;;;;;;2.92;1.60;;;19.40;99.90;;;;;;1972638;73;21066;-75
2021/06/02 05:56:21;;;;;;;1.65;1.50;;;20.20;99.90;;;;;;1972666;73;21108;-76
2021/06/02 05:58:47;;;;;;;3.15;1.30;;;21.30;99.90;;;;;;1972544;73;21136;-75
2021/06/02 06:01:13;;;;;;;4.80;1.50;;;21.80;99.90;;;;;;1972774;73;21032;-76
2021/06/02 06:03:39;;;;;;;2.20;1.20;;;20.80;99.90;;;;;;1972729;73;21039;-76
2021/06/02 06:06:06;;;;;;;3.85;2.08;;;20.00;99.90;;;;;;1972715;73;21228;-77
2021/06/02 06:08:32;;;;;;;2.67;1.77;;;20.10;99.90;;;;;;1972686;73;21059;-77
2021/06/02 06:10:58;;;;;;;3.00;1.57;;;20.40;99.90;;;;;;1972758;73;21036;-77
2021/06/02 06:13:24;;;;;;;2.77;1.45;;;20.40;99.90;;;;;;1972667;73;21101;-76
2021/06/02 06:15:50;;;;;;;5.83;1.75;;;19.80;99.90;;;;;;1972595;73;21136;-76
2021/06/02 06:18:16;;;;;;;2.33;1.42;;;19.60;99.90;;;;;;1972705;73;21084;-77
2021/06/02 06:20:42;;;;;;;2.30;1.50;;;18.90;99.90;;;;;;1972594;73;21125;-77
2021/06/02 06:23:08;;;;;;;4.08;1.52;;;19.80;99.90;;;;;;1972416;73;21130;-78
2021/06/02 06:25:35;;;;;;;4.95;1.60;;;20.20;99.90;;;;;;1972636;73;21128;-75
2021/06/02 06:28:01;;;;;;;1.65;1.20;;;19.60;99.90;;;;;;1973202;72;21066;-76
2021/06/02 06:30:27;;;;;;;6.42;1.37;;;20.50;99.90;;;;;;1973139;72;21067;-75
2021/06/02 06:32:53;;;;;;;1.75;1.32;;;20.50;99.90;;;;;;1972418;72;21152;-75
2021/06/02 06:35:19;;;;;;;3.05;1.42;;;20.60;99.90;;;;;;1972681;73;21216;-76
2021/06/02 06:37:45;;;;;;;3.17;1.32;;;21.30;99.90;;;;;;1972500;72;21149;-75
2021/06/02 06:40:11;;;;;;;3.92;1.30;;;21.90;99.90;;;;;;1972528;73;21495;-76
2021/06/02 06:42:37;;;;;;;1.92;1.30;;;21.60;99.90;;;;;;1972543;73;21495;-76
2021/06/02 06:45:04;;;;;;;2.42;1.20;;;21.20;99.90;;;;;;1972696;73;21487;-75
2021/06/02 06:47:30;;;;;;;3.27;1.42;;;20.90;99.90;;;;;;1972821;73;21574;-75
2021/06/02 06:49:56;;;;;;;2.60;1.00;;;21.50;99.90;;;;;;1975530;72;21605;-75
2021/06/02 06:52:22;;;;;;;5.92;1.20;;;22.20;99.90;;;;;;1975084;72;21471;-76
2021/06/02 06:54:48;;;;;;;2.95;1.47;;;21.50;99.90;;;;;;1972953;72;21171;-75
2021/06/02 06:57:15;;;;;;;2.30;1.10;;;21.60;99.90;;;;;;1972896;73;21132;-75
2021/06/02 06:59:41;;;;;;;2.75;1.70;;;21.90;99.90;;;;;;1973090;73;21062;-75
2021/06/02 07:02:09;;;;;;;1.67;1.20;;;22.00;99.30;;;;;;1973084;73;21136;-78
2021/06/02 07:04:35;;;;;;;1.47;1.37;;;22.40;99.30;;;;;;1972960;73;21060;-80
2021/06/02 07:07:01;;;;;;;5.53;1.30;;;22.10;98.40;;;;;;1973271;73;21161;-80
2021/06/02 07:09:27;;;;;;;4.72;1.62;;;21.80;98.40;;;;;;1972980;73;21028;-78
2021/06/02 07:11:53;;;;;;;3.00;1.30;;;22.00;99.40;;;;;;1973206;73;21087;-79
2021/06/02 07:14:19;;;;;;;2.22;1.07;;;22.50;97.70;;;;;;1973014;73;21102;-79
2021/06/02 07:16:45;;;;;;;1.57;1.20;;;22.80;94.70;;;;;;1973073;73;21055;-79
2021/06/02 07:19:11;;;;;;;1.10;1.00;;;22.60;96.00;;;;;;1973125;73;21027;-79
2021/06/02 07:21:38;;;;;;;1.62;1.07;;;21.50;95.00;;;;;;1972930;73;21105;-79
2021/06/02 07:24:05;;;;;;;6.20;1.12;;;21.80;93.00;;;;;;1973219;73;21076;-79
2021/06/02 07:26:31;;;;;;;3.50;1.00;;;21.50;95.10;;;;;;1973300;73;21105;-80
2021/06/02 07:28:59;;;;;;;5.65;1.17;;;21.30;95.20;;;;;;1973084;73;21432;-80
2021/06/02 07:31:25;;;;;;;2.10;1.27;;;21.80;94.60;;;;;;1973202;73;21172;-81
2021/06/02 07:33:51;;;;;;;1.92;1.00;;;21.90;95.20;;;;;;1973194;73;21055;-81
2021/06/02 07:36:17;;;;;;;1.17;0.82;;;22.00;95.00;;;;;;1973183;73;21479;-81
2021/06/02 07:38:43;;;;;;;4.90;0.93;;;21.40;95.60;;;;;;1973061;73;21502;-82
2021/06/02 07:41:09;;;;;;;7.92;1.70;;;21.90;95.30;;;;;;1973030;73;21570;-82
2021/06/02 07:43:35;;;;;;;6.25;1.00;;;22.80;92.40;;;;;;1973091;73;21051;-81
2021/06/02 07:46:02;;;;;;;3.00;1.30;;;22.70;92.50;;;;;;1973262;73;21165;-81
2021/06/02 07:48:28;;;;;;;1.52;1.10;;;23.00;91.60;;;;;;1972957;73;21128;-82
2021/06/02 07:50:54;;;;;;;2.80;1.00;;;22.00;92.70;;;;;;1973021;73;21144;-81
2021/06/02 07:53:20;;;;;;;0.95;0.90;;;22.40;91.90;;;;;;1973100;73;21057;-81
2021/06/02 07:55:46;;;;;;;4.03;1.10;;;22.70;91.10;;;;;;1973089;73;21136;-81
2021/06/02 07:58:12;;;;;;;4.15;1.45;;;22.70;91.30;;;;;;1973036;73;21206;-81
2021/06/02 08:00:38;;;;;;;6.45;1.10;;;22.20;91.60;;;;;;1973024;73;21125;-81
2021/06/02 08:03:04;;;;;;;3.17;1.02;;;22.30;90.80;;;;;;2010992;71;21018;-82
2021/06/02 08:05:35;;;;;;;3.72;1.05;;;21.90;92.10;;;;;;1973113;73;21132;-81
2021/06/02 08:07:58;;;;;;;2.60;1.00;;;22.70;90.40;;;;;;1973091;71;21452;-81
2021/06/02 08:10:25;;;;;;;3.67;1.02;;;22.70;88.50;;;;;;1973159;73;21023;-82
2021/06/02 08:12:51;;;;;;;2.33;0.82;;;22.60;89.30;;;;;;1973335;73;21080;-82
2021/06/02 08:15:18;;;;;;;3.77;0.90;;;23.50;88.70;;;;;;1973155;73;21055;-84
2021/06/02 08:17:44;;;;;;;0.70;0.70;;;23.60;81.20;;;;;;1973434;73;21189;-82
2021/06/02 08:20:10;;;;;;;2.77;0.80;;;22.50;82.70;;;;;;1973231;73;21028;-82
2021/06/02 08:22:37;;;;;;;3.90;0.80;;;22.80;78.90;;;;;;1973101;73;21067;-79
2021/06/02 08:25:03;;;;;;;0.78;0.70;;;22.50;79.00;;;;;;1973216;73;21177;-80
2021/06/02 08:27:29;;;;;;;0.90;0.80;;;23.10;80.00;;;;;;1973212;73;21058;-80
2021/06/02 08:29:55;;;;;;;6.30;1.10;;;22.60;86.30;;;;;;1974611;72;21440;-80
2021/06/02 08:32:23;;;;;;;4.78;1.05;;;22.20;87.00;;;;;;1973210;73;21508;-79
2021/06/02 08:34:50;;;;;;;2.37;1.20;;;22.60;84.20;;;;;;1973320;73;21235;-79
2021/06/02 08:37:16;;;;;;;2.80;0.93;;;22.80;83.70;;;;;;1973184;73;21080;-80
2021/06/02 08:39:42;;;;;;;2.30;1.05;;;23.00;83.80;;;;;;1973337;73;21112;-78
2021/06/02 08:42:08;;;;;;;9.83;1.37;;;23.40;86.00;;;;;;1974306;72;21136;-79
2021/06/02 08:44:34;;;;;;;3.08;1.10;;;24.10;81.30;;;;;;1973310;73;21043;-78
2021/06/02 08:47:01;;;;;;;1.50;0.93;;;24.00;82.10;;;;;;1975641;72;21071;-78
2021/06/02 08:49:27;;;;;;;1.07;0.98;;;24.00;81.90;;;;;;1973211;73;21161;-77
2021/06/02 08:51:53;;;;;;;1.02;0.90;;;24.30;81.90;;;;;;1974058;72;21133;-78
2021/06/02 08:54:21;;;;;;;4.47;0.90;;;24.70;81.50;;;;;;1974233;72;21205;-78
2021/06/02 08:56:47;;;;;;;1.20;0.80;;;24.30;82.10;;;;;;1972884;73;21130;-78
2021/06/02 08:59:13;;;;;;;8.73;1.10;;;24.20;84.20;;;;;;1973179;73;21174;-73
2021/06/02 09:01:39;;;;;;;1.80;0.88;;;24.80;81.40;;;;;;1973103;73;21110;-72
2021/06/02 09:04:05;;;;;;;6.08;1.05;;;24.30;79.50;;;;;;1973145;73;21067;-74
2021/06/02 09:06:31;;;;;;;1.45;0.80;;;24.20;81.70;;;;;;1973096;73;21059;-75
2021/06/02 09:08:57;;;;;;;2.58;1.35;;;24.70;78.60;;;;;;1973110;73;21055;-75
2021/06/02 09:11:24;;;;;;;3.52;1.00;;;24.90;77.10;;;;;;1973215;73;21087;-75
2021/06/02 09:13:50;;;;;;;7.70;1.07;;;24.70;75.00;;;;;;1973105;73;21502;-75
2021/06/02 09:16:16;;;;;;;2.67;0.70;;;25.10;72.90;;;;;;1973133;73;21452;-75
2021/06/02 09:18:42;;;;;;;7.92;1.00;;;25.20;73.10;;;;;;1973042;73;21451;-74
2021/06/02 09:21:08;;;;;;;1.37;0.80;;;24.90;68.50;;;;;;1973306;73;21088;-75
2021/06/02 09:23:35;;;;;;;5.15;0.72;;;25.40;71.30;;;;;;1973149;73;21038;-75
2021/06/02 09:26:01;;;;;;;3.75;1.15;;;25.80;69.00;;;;;;1973238;73;21185;-75
2021/06/02 09:28:27;;;;;;;4.35;0.70;;;25.20;70.10;;;;;;1973249;73;21076;-75
2021/06/02 09:30:55;;;;;;;3.05;0.80;;;25.10;68.20;;;;;;1973287;73;21158;-73
2021/06/02 09:33:21;;;;;;;3.92;0.93;;;24.70;68.10;;;;;;1973117;73;21080;-74
2021/06/02 09:35:47;;;;;;;1.00;0.70;;;24.90;64.10;;;;;;1973182;73;21091;-74
2021/06/02 09:38:13;;;;;;;0.53;0.53;;;25.20;70.30;;;;;;1973154;73;21049;-76
2021/06/02 09:40:39;;;;;;;1.98;0.70;;;25.80;62.20;;;;;;1973198;73;21106;-75
2021/06/02 09:43:05;;;;;;;1.57;0.95;;;26.30;67.10;;;;;;1973277;73;21076;-76
2021/06/02 09:45:32;;;;;;;2.17;0.60;;;26.30;61.90;;;;;;1973146;73;21055;-76
2021/06/02 09:47:58;;;;;;;2.27;0.60;;;25.90;60.70;;;;;;1973204;73;21149;-75
2021/06/02 09:50:24;;;;;;;1.22;0.68;;;25.50;58.00;;;;;;1973413;73;21178;-76
2021/06/02 09:52:50;;;;;;;1.42;0.80;;;25.50;59.90;;;;;;1974024;73;21516;-75
2021/06/02 09:55:16;;;;;;;0.85;0.60;;;25.60;58.40;;;;;;1973823;73;21596;-79
2021/06/02 09:57:42;;;;;;;0.70;0.70;;;25.50;58.10;;;;;;1973265;73;21447;-78
2021/06/02 10:00:10;;;;;;;1.27;0.80;;;24.90;58.80;;;;;;1973043;73;21451;-78
2021/06/02 10:02:36;;;;;;;1.55;0.65;;;25.00;57.90;;;;;;1972930;73;21128;-78
2021/06/02 10:05:02;;;;;;;1.37;0.78;;;25.30;58.50;;;;;;1973240;73;21087;-78
2021/06/02 10:07:28;;;;;;;2.05;0.90;;;25.00;57.60;;;;;;1973039;73;21067;-78
2021/06/02 10:09:55;;;;;;;2.02;1.07;;;25.20;58.40;;;;;;1973188;73;21072;-76
2021/06/02 10:12:21;;;;;;;2.77;0.93;;;26.00;58.20;;;;;;1972944;73;21058;-76
2021/06/02 10:14:47;;;;;;;3.67;1.10;;;26.40;56.90;;;;;;1973077;73;21212;-76
2021/06/02 10:17:13;;;;;;;7.55;1.00;;;26.00;57.50;;;;;;1972987;73;21055;-79
2021/06/02 10:19:40;;;;;;;5.12;1.10;;;25.70;56.30;;;;;;1973202;73;21139;-79
2021/06/02 10:22:07;;;;;;;0.80;0.70;;;25.80;56.00;;;;;;1972981;73;21144;-79
2021/06/02 10:24:33;;;;;;;2.98;0.88;;;25.80;55.80;;;;;;1973347;73;21084;-79
2021/06/02 10:26:59;;;;;;;1.70;0.60;;;26.30;58.80;;;;;;1973045;72;21072;-79
2021/06/02 10:29:25;;;;;;;0.57;0.57;;;26.90;57.00;;;;;;1973187;73;21083;-79
2021/06/02 10:31:52;;;;;;;0.75;0.60;;;27.20;54.40;;;;;;1972921;73;21059;-77
2021/06/02 10:34:18;;;;;;;0.82;0.72;;;27.40;55.10;;;;;;1973178;73;21089;-77
2021/06/02 10:36:44;;;;;;;2.55;0.98;;;27.50;53.00;;;;;;1972979;73;21079;-77
2021/06/02 10:39:10;;;;;;;0.95;0.80;;;27.50;53.30;;;;;;1973217;73;21146;-77
2021/06/02 10:41:36;;;;;;;1.37;0.78;;;27.00;52.80;;;;;;1972918;73;21140;-77
2021/06/02 10:44:02;;;;;;;1.15;0.70;;;27.10;52.70;;;;;;1973242;73;21464;-77
2021/06/02 10:46:30;;;;;;;2.08;0.78;;;27.20;51.50;;;;;;1973036;73;21441;-79
2021/06/02 10:48:56;;;;;;;1.20;0.70;;;26.40;52.20;;;;;;1973175;73;21078;-78
2021/06/02 10:51:22;;;;;;;6.50;0.80;;;26.30;52.50;;;;;;1973082;73;21055;-78
2021/06/02 10:53:48;;;;;;;3.37;1.30;;;26.20;52.70;;;;;;1974200;72;21067;-81
2021/06/02 10:56:14;;;;;;;1.07;0.75;;;26.50;53.00;;;;;;1973119;73;21074;-76
2021/06/02 10:58:40;;;;;;;0.90;0.75;;;26.80;52.20;;;;;;1973009;73;21032;-77
2021/06/02 11:01:06;;;;;;;8.13;0.88;;;26.80;53.50;;;;;;1973116;73;21070;-77
2021/06/02 11:03:33;;;;;;;4.17;0.85;;;27.10;50.40;;;;;;1973057;73;21140;-77
2021/06/02 11:05:59;;;;;;;2.70;0.95;;;27.00;51.10;;;;;;1976408;72;21078;-77
2021/06/02 11:08:25;;;;;;;0.93;0.60;;;27.10;50.60;;;;;;1976056;72;21004;-76
2021/06/02 11:10:51;;;;;;;6.78;1.20;;;27.60;51.00;;;;;;1972886;73;21579;-79
2021/06/02 11:13:17;;;;;;;0.95;0.80;;;27.80;49.50;;;;;;1973104;73;21479;-76
2021/06/02 11:15:43;;;;;;;4.58;0.68;;;27.40;49.20;;;;;;1973045;73;21519;-77
2021/06/02 11:18:09;;;;;;;1.17;0.62;;;27.10;49.70;;;;;;1976582;72;21494;-77
2021/06/02 11:20:35;;;;;;;0.62;0.62;;;26.80;50.50;;;;;;1975633;72;21552;-78
2021/06/02 11:23:02;;;;;;;1.95;0.85;;;27.00;49.60;;;;;;1975385;72;21490;-79
2021/06/02 11:25:28;;;;;;;0.72;0.60;;;26.80;50.40;;;;;;1971524;72;21061;-78
2021/06/02 11:27:54;;;;;;;1.32;0.72;;;27.20;51.60;;;;;;1970147;73;21089;-79
2021/06/02 11:30:20;;;;;;;1.45;0.80;;;27.20;54.30;;;;;;1976850;72;21179;-73
2021/06/02 11:32:46;;;;;;;1.25;0.90;;;26.90;53.00;;;;;;1974146;72;21056;-71
2021/06/02 11:35:12;;;;;;;1.32;0.70;;;27.00;54.90;;;;;;1973155;73;21154;-72
2021/06/02 11:37:38;;;;;;;0.80;0.70;;;27.40;52.20;;;;;;1973178;73;21059;-76
2021/06/02 11:40:05;;;;;;;2.30;0.78;;;27.40;52.40;;;;;;1973039;73;21036;-73
2021/06/02 11:42:31;;;;;;;1.37;0.80;;;28.00;51.80;;;;;;1972967;73;21063;-72
2021/06/02 11:44:57;;;;;;;10.72;0.70;;;28.20;51.30;;;;;;1973247;73;21088;-71
2021/06/02 11:47:23;;;;;;;2.70;0.62;;;28.30;51.00;;;;;;1973081;73;21067;-72
2021/06/02 11:49:49;;;;;;;1.10;0.80;;;28.20;48.90;;;;;;1973259;73;21064;-71
2021/06/02 11:52:16;;;;;;;1.27;0.60;;;28.30;49.10;;;;;;1972936;73;20992;-72
2021/06/02 11:54:43;;;;;;;1.07;0.60;;;27.80;49.10;;;;;;1973119;73;21031;-71
2021/06/02 11:57:09;;;;;;;1.40;0.62;;;28.00;49.90;;;;;;1973211;73;21219;-71
2021/06/02 11:59:35;;;;;;;2.15;0.70;;;27.70;50.20;;;;;;1973011;73;21059;-71
2021/06/02 12:02:01;;;;;;;0.85;0.78;;;27.90;50.40;;;;;;1973280;73;21188;-71
2021/06/02 12:04:27;;;;;;;0.90;0.60;;;28.00;50.60;;;;;;1973034;73;21112;-71
2021/06/02 12:06:53;;;;;;;1.30;0.60;;;27.80;49.50;;;;;;1973319;73;21055;-71
2021/06/02 12:09:19;;;;;;;2.67;0.72;;;28.10;49.10;;;;;;1973022;73;21078;-71
2021/06/02 12:11:45;;;;;;;3.15;0.80;;;28.40;50.70;;;;;;1973211;73;21088;-72
2021/06/02 12:14:12;;;;;;;1.80;0.75;;;28.70;48.40;;;;;;1973089;73;21051;-72
2021/06/02 12:16:38;;;;;;;0.93;0.80;;;28.90;49.40;;;;;;1973081;73;21076;-72
2021/06/02 12:19:04;;;;;;;0.93;0.60;;;28.70;47.50;;;;;;1973004;73;21055;-72
2021/06/02 12:21:30;;;;;;;6.08;0.90;;;28.50;48.00;;;;;;1973209;73;21216;-72
2021/06/02 12:23:57;;;;;;;0.53;0.50;;;29.00;48.80;;;;;;1973018;72;21074;-71
2021/06/02 12:26:23;;;;;;;4.60;0.80;;;28.90;47.10;;;;;;1973157;72;21077;-71
2021/06/02 12:28:49;;;;;;;1.45;0.80;;;28.60;47.10;;;;;;1973058;73;21024;-71
2021/06/02 12:31:15;;;;;;;3.42;0.68;;;29.10;46.80;;;;;;1973124;73;21080;-71
2021/06/02 12:33:41;;;;;;;0.75;0.60;;;29.60;45.70;;;;;;1973026;73;21044;-72
2021/06/02 12:36:07;;;;;;;4.37;0.78;;;29.90;45.30;;;;;;1973205;73;21088;-72
2021/06/02 12:41:17;;;;;;;3.80;0.60;;;30.20;46.40;;;;;;1973010;73;21541;-72
2021/06/02 12:43:46;;;;;;;3.50;0.80;;;31.10;46.20;;;;;;1973131;73;21514;-72
2021/06/02 12:46:11;;;;;;;0.82;0.80;;;31.80;44.10;;;;;;1973033;71;21156;-72
2021/06/02 12:48:38;;;;;;;1.55;0.62;;;31.00;43.90;;;;;;1973217;73;21075;-73
2021/06/02 12:51:04;;;;;;;0.72;0.72;;;30.90;44.50;;;;;;1973176;73;21170;-72